Time;durP1;ratioP1;P1;durP2;ratioP2;P2;SDS_P1;SDS_P2;PMS_P1;PMS_P2;Temp;Humidity;BMP_temperature;BMP_pressure;BME280_temperature;BME280_humidity;BME280_pressure;Samples;Min_cycle;Max_cycle;Signal;HPM_P1;HPM_P2
2021/01/28 00:01:03;;;;;;;3.00;2.30;;;4.20;40.80;;;;;;5072747;28;20273;-71
2021/01/28 00:03:29;;;;;;;3.10;2.17;;;4.10;40.80;;;;;;5073014;28;20209;-71
2021/01/28 00:05:55;;;;;;;3.17;2.87;;;4.10;40.70;;;;;;5073983;28;20420;-71
2021/01/28 00:08:20;;;;;;;5.23;2.70;;;4.10;41.00;;;;;;5076799;28;20549;-70
2021/01/28 00:10:46;;;;;;;2.97;2.53;;;4.10;41.10;;;;;;5055347;28;20194;-73
2021/01/28 00:13:13;;;;;;;3.50;2.33;;;4.10;41.00;;;;;;5055994;28;20665;-73
2021/01/28 00:15:39;;;;;;;3.38;2.20;;;4.10;40.90;;;;;;5059175;28;20952;-70
2021/01/28 00:18:07;;;;;;;2.80;2.60;;;4.10;40.80;;;;;;5080855;28;20338;-71
2021/01/28 00:20:36;;;;;;;3.10;2.67;;;4.10;40.80;;;;;;5079659;28;20202;-70
2021/01/28 00:23:03;;;;;;;6.07;2.63;;;4.20;40.90;;;;;;5077337;28;20280;-71
2021/01/28 00:25:29;;;;;;;4.15;2.85;;;4.20;41.00;;;;;;5076903;28;20643;-71
2021/01/28 00:27:55;;;;;;;2.27;1.93;;;4.20;40.60;;;;;;5078171;28;20184;-72
2021/01/28 00:30:32;;;;;;;2.47;2.28;;;4.30;40.70;;;;;;5076720;28;20297;-71
2021/01/28 00:32:58;;;;;;;2.50;2.30;;;4.20;40.50;;;;;;5077534;28;20182;-71
2021/01/28 00:35:37;;;;;;;3.95;2.70;;;4.30;40.20;;;;;;5079305;28;20173;-71
2021/01/28 00:38:09;;;;;;;3.72;3.20;;;4.20;40.30;;;;;;5081315;28;20183;-72
2021/01/28 00:40:34;;;;;;;2.72;2.28;;;4.20;40.80;;;;;;5079169;28;20194;-71
2021/01/28 00:43:00;;;;;;;3.40;2.57;;;4.20;40.90;;;;;;5075968;28;20218;-71
2021/01/28 00:45:28;;;;;;;2.83;2.53;;;4.20;41.10;;;;;;5077577;28;20643;-71
2021/01/28 00:47:55;;;;;;;3.45;2.40;;;4.20;41.20;;;;;;5077606;28;20189;-71
2021/01/28 00:50:23;;;;;;;3.00;2.67;;;4.30;41.00;;;;;;5076297;28;20206;-71
2021/01/28 00:52:49;;;;;;;2.75;2.45;;;4.20;40.90;;;;;;5077078;28;20179;-71
2021/01/28 00:55:16;;;;;;;2.07;1.57;;;4.30;40.90;;;;;;5077212;28;20262;-72
2021/01/28 00:57:42;;;;;;;2.33;2.10;;;4.30;40.80;;;;;;5072696;28;20661;-72
2021/01/28 01:00:15;;;;;;;2.65;2.45;;;4.30;40.70;;;;;;5071547;28;20208;-72
2021/01/28 01:02:44;;;;;;;3.35;2.58;;;4.30;40.70;;;;;;5072176;28;20194;-72
2021/01/28 01:05:11;;;;;;;3.13;2.38;;;4.20;41.00;;;;;;5071732;28;20273;-73
2021/01/28 01:07:37;;;;;;;2.45;2.00;;;4.20;41.40;;;;;;5053814;28;20182;-72
2021/01/28 01:10:06;;;;;;;3.55;2.20;;;4.20;41.50;;;;;;5071888;28;20245;-72
2021/01/28 01:12:32;;;;;;;2.55;2.28;;;4.20;41.50;;;;;;5072291;28;20228;-73
2021/01/28 01:14:57;;;;;;;3.40;2.33;;;4.20;41.60;;;;;;5071248;28;20174;-72
2021/01/28 01:17:23;;;;;;;2.27;1.80;;;4.20;41.10;;;;;;5071495;28;20207;-73
2021/01/28 01:19:48;;;;;;;2.17;1.60;;;4.20;41.70;;;;;;5071279;28;20194;-71
2021/01/28 01:22:14;;;;;;;1.93;1.70;;;4.30;41.50;;;;;;5071160;28;20201;-73
2021/01/28 01:24:39;;;;;;;1.93;1.70;;;4.20;41.60;;;;;;5072038;28;20630;-71
2021/01/28 01:27:05;;;;;;;2.07;1.57;;;4.20;42.00;;;;;;5071880;28;20174;-71
2021/01/28 01:29:31;;;;;;;1.60;1.50;;;4.20;42.10;;;;;;5070397;28;20273;-71
2021/01/28 01:31:56;;;;;;;1.97;1.30;;;4.20;42.10;;;;;;5070927;28;20186;-72
2021/01/28 01:34:22;;;;;;;4.00;2.13;;;4.20;42.20;;;;;;5072414;28;20585;-72
2021/01/28 01:36:47;;;;;;;2.40;1.57;;;4.30;42.00;;;;;;5071014;28;20201;-72
2021/01/28 01:39:13;;;;;;;1.60;1.50;;;4.30;41.90;;;;;;5070225;28;20198;-71
2021/01/28 01:41:38;;;;;;;2.60;1.80;;;4.30;42.60;;;;;;5071066;28;20180;-73
2021/01/28 01:44:04;;;;;;;1.70;1.57;;;4.30;41.20;;;;;;5072124;28;20291;-73
2021/01/28 01:46:30;;;;;;;1.77;1.37;;;4.30;41.20;;;;;;5070727;28;20211;-70
2021/01/28 01:49:09;;;;;;;2.03;1.83;;;4.30;41.50;;;;;;5069984;28;20820;-72
2021/01/28 01:51:42;;;;;;;2.20;1.95;;;4.30;41.70;;;;;;5070851;28;20330;-72
2021/01/28 01:54:24;;;;;;;2.85;2.25;;;4.20;41.90;;;;;;5071756;28;20674;-72
2021/01/28 01:56:54;;;;;;;2.28;2.05;;;4.10;42.40;;;;;;5070854;28;20295;-72
2021/01/28 01:59:26;;;;;;;3.10;2.37;;;4.10;42.40;;;;;;5053459;28;20206;-72
2021/01/28 02:02:00;;;;;;;2.63;2.42;;;4.20;42.50;;;;;;5070942;28;20489;-71
2021/01/28 02:04:28;;;;;;;2.97;2.65;;;4.30;42.20;;;;;;5070557;28;20179;-73
2021/01/28 02:07:09;;;;;;;4.35;2.85;;;4.30;41.90;;;;;;5071166;28;20221;-72
2021/01/28 02:09:35;;;;;;;3.80;3.20;;;4.30;42.00;;;;;;5055458;28;20198;-73
2021/01/28 02:12:01;;;;;;;3.20;2.53;;;4.30;41.90;;;;;;5074728;28;20190;-73
2021/01/28 02:14:26;;;;;;;4.20;2.70;;;4.30;42.40;;;;;;5074540;28;20930;-71
2021/01/28 02:17:06;;;;;;;5.57;3.40;;;4.30;42.00;;;;;;5074594;28;20180;-73
2021/01/28 02:19:50;;;;;;;8.67;3.47;;;4.30;41.80;;;;;;5056032;28;20266;-72
2021/01/28 02:22:39;;;;;;;3.72;3.30;;;4.30;41.60;;;;;;5074420;28;20467;-73
2021/01/28 02:25:42;;;;;;;3.72;3.40;;;4.40;41.60;;;;;;5035284;28;20194;-72
2021/01/28 02:28:12;;;;;;;3.55;2.90;;;4.40;41.70;;;;;;5030209;28;20218;-73
2021/01/28 02:30:39;;;;;;;3.28;2.97;;;4.40;41.50;;;;;;5074439;28;20248;-73
2021/01/28 02:33:10;;;;;;;3.38;3.08;;;4.40;41.50;;;;;;5074235;28;20652;-73
2021/01/28 02:35:37;;;;;;;2.90;2.70;;;4.40;41.60;;;;;;5074680;28;20199;-72
2021/01/28 02:38:08;;;;;;;3.70;1.65;;;4.40;41.50;;;;;;5074999;28;20190;-72
2021/01/28 02:40:34;;;;;;;2.45;2.25;;;4.40;41.50;;;;;;5073381;28;20290;-71
2021/01/28 02:43:00;;;;;;;2.43;1.50;;;4.40;41.50;;;;;;5073866;28;20277;-70
2021/01/28 02:45:31;;;;;;;1.80;1.00;;;4.40;41.70;;;;;;5073932;28;20501;-70
2021/01/28 02:48:00;;;;;;;1.20;0.93;;;4.40;41.90;;;;;;5073814;28;20409;-70
2021/01/28 02:50:27;;;;;;;1.92;1.10;;;4.40;42.10;;;;;;5073027;28;20573;-70
2021/01/28 02:52:54;;;;;;;1.23;0.82;;;4.40;41.90;;;;;;5073739;28;20240;-70
2021/01/28 02:55:20;;;;;;;1.80;1.13;;;4.30;42.00;;;;;;5075859;28;20170;-70
2021/01/28 02:57:45;;;;;;;2.13;1.27;;;4.30;42.30;;;;;;5056605;28;20543;-69
2021/01/28 03:00:15;;;;;;;1.50;0.83;;;4.40;42.70;;;;;;5073345;28;20449;-70
2021/01/28 03:02:40;;;;;;;1.58;1.08;;;4.30;42.30;;;;;;5073622;28;20206;-70
2021/01/28 03:05:07;;;;;;;1.20;0.83;;;4.30;42.60;;;;;;5073868;28;20169;-70
2021/01/28 03:07:32;;;;;;;1.10;0.70;;;4.30;42.90;;;;;;5073785;28;20169;-72
2021/01/28 03:09:58;;;;;;;1.30;0.60;;;4.20;43.70;;;;;;5073322;28;20202;-72
2021/01/28 03:12:23;;;;;;;1.40;0.80;;;4.30;44.00;;;;;;5074203;28;20179;-71
2021/01/28 03:14:49;;;;;;;1.40;0.70;;;4.30;44.10;;;;;;5055465;28;20655;-72
2021/01/28 03:17:15;;;;;;;1.00;0.60;;;4.40;44.10;;;;;;5074148;28;20643;-70
2021/01/28 03:19:40;;;;;;;4.53;0.87;;;4.40;44.10;;;;;;5073080;28;20279;-71
2021/01/28 03:22:06;;;;;;;3.23;1.20;;;4.50;44.20;;;;;;5072709;28;20179;-70
2021/01/28 03:24:31;;;;;;;4.13;1.20;;;4.50;44.00;;;;;;5055784;28;20171;-69
2021/01/28 03:26:57;;;;;;;1.77;0.90;;;4.50;43.60;;;;;;5073903;28;20183;-69
2021/01/28 03:29:22;;;;;;;1.10;0.67;;;4.50;43.50;;;;;;5073084;28;20194;-71
2021/01/28 03:31:48;;;;;;;1.97;0.90;;;4.50;43.60;;;;;;5073165;28;20183;-70
2021/01/28 03:34:13;;;;;;;1.30;0.80;;;4.50;43.50;;;;;;5055039;28;20178;-70
2021/01/28 03:36:39;;;;;;;1.73;0.90;;;4.50;42.70;;;;;;5073001;28;20216;-70
2021/01/28 03:39:06;;;;;;;1.30;0.90;;;4.50;43.00;;;;;;5072146;28;20219;-70
2021/01/28 03:41:32;;;;;;;1.30;0.88;;;4.50;43.20;;;;;;5073865;28;20420;-70
2021/01/28 03:43:58;;;;;;;1.67;1.45;;;4.60;43.10;;;;;;5073179;28;20234;-69
2021/01/28 03:46:23;;;;;;;2.23;1.97;;;4.50;43.20;;;;;;5072849;28;20648;-70
2021/01/28 03:48:49;;;;;;;2.40;2.20;;;4.60;43.30;;;;;;5072371;28;20168;-70
2021/01/28 03:51:15;;;;;;;4.63;3.00;;;4.50;43.30;;;;;;5121186;22;20234;-72
2021/01/28 03:53:40;;;;;;;3.60;2.40;;;4.50;43.30;;;;;;5115014;28;20656;-72
2021/01/28 03:56:06;;;;;;;2.83;2.63;;;4.50;43.50;;;;;;5116443;28;20325;-72
2021/01/28 03:58:31;;;;;;;2.63;2.40;;;4.50;43.40;;;;;;5097904;28;20181;-73
2021/01/28 04:00:57;;;;;;;3.50;3.20;;;4.50;43.30;;;;;;5113754;28;20220;-71
2021/01/28 04:03:23;;;;;;;3.93;3.40;;;4.50;43.10;;;;;;5113842;28;20670;-72
2021/01/28 04:05:48;;;;;;;3.40;3.10;;;4.40;43.60;;;;;;5114149;28;20169;-74
2021/01/28 04:08:14;;;;;;;4.77;3.23;;;4.40;43.80;;;;;;5114642;28;20181;-73
2021/01/28 04:10:40;;;;;;;4.50;4.10;;;4.30;43.90;;;;;;5096988;28;20288;-72
2021/01/28 04:13:06;;;;;;;3.47;3.17;;;4.30;44.20;;;;;;5116056;28;20185;-72
2021/01/28 04:15:33;;;;;;;4.20;3.10;;;4.30;44.50;;;;;;5114581;28;20172;-72
2021/01/28 04:17:59;;;;;;;3.05;2.85;;;4.30;44.70;;;;;;5114657;28;20183;-72
2021/01/28 04:20:30;;;;;;;3.72;3.42;;;4.30;44.80;;;;;;5095937;28;20192;-72
2021/01/28 04:22:56;;;;;;;4.15;2.88;;;4.30;45.10;;;;;;5096158;28;20310;-73
2021/01/28 04:25:23;;;;;;;3.45;3.15;;;4.20;45.40;;;;;;5098298;28;20709;-72
2021/01/28 04:27:48;;;;;;;3.80;3.05;;;4.20;45.40;;;;;;5115088;28;20188;-72
2021/01/28 04:30:21;;;;;;;5.73;4.33;;;4.20;46.00;;;;;;5096344;28;20193;-72
2021/01/28 04:32:47;;;;;;;9.57;5.05;;;4.10;45.90;;;;;;5114578;28;20169;-72
2021/01/28 04:35:13;;;;;;;5.70;5.20;;;4.10;45.90;;;;;;5115245;28;20204;-73
2021/01/28 04:37:39;;;;;;;8.00;7.00;;;4.00;46.00;;;;;;5114504;28;20255;-73
2021/01/28 04:40:11;;;;;;;8.60;6.90;;;4.00;46.00;;;;;;5113797;28;20292;-73
2021/01/28 04:42:48;;;;;;;6.30;5.30;;;3.90;46.60;;;;;;5113821;28;20490;-73
2021/01/28 04:45:18;;;;;;;6.57;5.97;;;3.90;47.20;;;;;;5117580;28;20205;-72
2021/01/28 04:48:05;;;;;;;7.53;5.82;;;3.90;47.20;;;;;;5095016;28;20176;-72
2021/01/28 04:50:35;;;;;;;5.03;4.53;;;4.00;46.90;;;;;;5113743;28;20222;-73
2021/01/28 04:53:08;;;;;;;7.45;5.40;;;4.00;46.70;;;;;;5095757;28;20212;-73
2021/01/28 04:55:37;;;;;;;8.38;5.30;;;4.10;46.60;;;;;;5096074;28;20178;-73
2021/01/28 04:58:03;;;;;;;6.57;4.82;;;4.20;46.10;;;;;;5118905;28;20186;-73
2021/01/28 05:00:28;;;;;;;5.97;5.37;;;4.20;45.30;;;;;;5114916;28;20554;-73
2021/01/28 05:03:03;;;;;;;5.30;4.57;;;4.20;45.00;;;;;;5113651;28;20563;-73
2021/01/28 05:05:29;;;;;;;5.80;5.25;;;4.30;44.60;;;;;;5114829;28;20493;-73
2021/01/28 05:07:54;;;;;;;12.30;4.57;;;4.30;44.50;;;;;;5115688;28;20177;-73
2021/01/28 05:10:26;;;;;;;5.80;5.20;;;4.30;44.40;;;;;;5112687;28;20199;-73
2021/01/28 05:12:56;;;;;;;4.93;4.25;;;4.30;43.80;;;;;;5096531;28;20208;-73
2021/01/28 05:15:30;;;;;;;5.57;4.72;;;4.30;43.30;;;;;;5095564;28;20173;-73
2021/01/28 05:18:04;;;;;;;6.03;4.78;;;4.30;42.80;;;;;;5115013;28;20182;-73
2021/01/28 05:20:31;;;;;;;5.72;5.22;;;4.30;42.80;;;;;;5096348;28;20200;-73
2021/01/28 05:23:04;;;;;;;6.97;6.00;;;4.30;42.60;;;;;;5113717;28;20195;-73
2021/01/28 05:25:31;;;;;;;5.18;4.78;;;4.30;42.60;;;;;;5114253;28;20169;-72
2021/01/28 05:27:57;;;;;;;7.03;6.43;;;4.20;42.50;;;;;;5113441;28;20176;-73
2021/01/28 05:30:41;;;;;;;7.13;5.10;;;4.30;42.90;;;;;;5112742;28;20197;-73
2021/01/28 05:33:30;;;;;;;6.40;5.80;;;4.30;42.90;;;;;;5095782;28;20180;-73
2021/01/28 05:36:18;;;;;;;4.25;3.85;;;4.30;42.90;;;;;;5105516;28;20192;-73
2021/01/28 05:38:45;;;;;;;5.03;4.43;;;4.30;43.00;;;;;;5113012;28;20199;-72
2021/01/28 05:41:33;;;;;;;5.60;4.72;;;4.40;43.00;;;;;;5113398;28;20198;-73
2021/01/28 05:44:28;;;;;;;5.07;4.60;;;4.40;42.70;;;;;;5113615;28;20213;-73
2021/01/28 05:46:59;;;;;;;7.28;5.03;;;4.40;42.70;;;;;;5113485;28;20179;-73
2021/01/28 05:49:25;;;;;;;5.28;4.60;;;4.40;42.70;;;;;;5094135;28;20186;-73
2021/01/28 05:51:51;;;;;;;6.90;4.60;;;4.50;42.80;;;;;;5114286;28;20258;-73
2021/01/28 05:54:24;;;;;;;5.88;4.68;;;4.50;42.80;;;;;;5095003;28;20231;-73
2021/01/28 05:57:17;;;;;;;4.75;4.35;;;4.60;42.80;;;;;;5113892;28;20180;-73
2021/01/28 05:59:58;;;;;;;4.38;3.53;;;4.60;42.90;;;;;;5112995;28;20209;-73
2021/01/28 06:02:36;;;;;;;4.78;4.25;;;4.70;42.90;;;;;;5113433;28;20205;-73
2021/01/28 06:05:24;;;;;;;4.35;3.95;;;4.70;42.90;;;;;;5113964;28;20181;-73
2021/01/28 06:08:01;;;;;;;4.60;3.80;;;4.70;42.80;;;;;;5113291;28;20179;-73
2021/01/28 06:11:04;;;;;;;4.88;4.38;;;4.80;42.80;;;;;;5111987;28;20236;-72
2021/01/28 06:13:49;;;;;;;5.40;4.90;;;4.80;43.00;;;;;;5113844;28;20741;-72
2021/01/28 06:16:29;;;;;;;9.27;6.50;;;4.80;43.00;;;;;;5096534;28;20435;-73
2021/01/28 06:19:22;;;;;;;7.22;6.50;;;4.80;43.00;;;;;;5112638;28;20534;-73
2021/01/28 06:22:01;;;;;;;7.87;6.90;;;4.80;43.00;;;;;;5113979;28;20182;-74
2021/01/28 06:24:48;;;;;;;6.93;6.32;;;4.70;43.70;;;;;;5114237;28;20407;-74
2021/01/28 06:27:46;;;;;;;7.45;6.85;;;4.70;44.20;;;;;;5095182;28;20182;-73
2021/01/28 06:30:12;;;;;;;6.82;6.25;;;4.60;44.40;;;;;;5114198;28;20194;-74
2021/01/28 06:33:09;;;;;;;5.83;5.40;;;4.60;44.70;;;;;;5114316;28;20199;-74
2021/01/28 06:35:55;;;;;;;7.47;6.60;;;4.50;45.00;;;;;;5108758;28;20183;-72
2021/01/28 06:38:30;;;;;;;6.85;6.03;;;4.60;45.40;;;;;;5072753;28;20621;-74
2021/01/28 06:41:01;;;;;;;5.47;4.97;;;4.50;45.40;;;;;;5091305;28;20204;-73
2021/01/28 06:43:50;;;;;;;5.57;5.07;;;4.60;45.80;;;;;;5110762;28;20635;-73
2021/01/28 06:46:48;;;;;;;6.90;5.20;;;4.60;45.90;;;;;;5112732;28;20160;-73
2021/01/28 06:49:23;;;;;;;6.30;4.57;;;4.60;47.50;;;;;;5101086;28;20461;-73
2021/01/28 06:51:55;;;;;;;5.65;4.65;;;;;;;;;;5082107;28;20182;-73
2021/01/28 06:54:47;;;;;;;4.35;3.95;;;;;;;;;;5103761;28;20601;-73
2021/01/28 06:57:33;;;;;;;4.88;4.47;;;4.70;46.00;;;;;;5074992;28;20273;-74
2021/01/28 07:00:04;;;;;;;7.63;5.32;;;4.70;47.20;;;;;;5094811;28;20741;-74
2021/01/28 07:02:41;;;;;;;5.43;4.72;;;4.70;47.60;;;;;;5096576;28;20205;-74
2021/01/28 07:05:15;;;;;;;13.05;6.13;;;4.60;47.80;;;;;;5077829;28;20440;-73
2021/01/28 07:08:05;;;;;;;6.40;4.95;;;4.60;47.80;;;;;;5102408;28;20200;-73
2021/01/28 07:10:37;;;;;;;5.25;4.75;;;4.50;48.40;;;;;;5097076;28;20205;-74
2021/01/28 07:13:04;;;;;;;6.20;5.57;;;4.50;48.60;;;;;;5115436;28;20169;-73
2021/01/28 07:15:30;;;;;;;6.57;4.68;;;4.60;48.60;;;;;;5096078;28;20211;-73
2021/01/28 07:18:09;;;;;;;8.47;5.43;;;4.60;52.50;;;;;;5116725;28;20174;-73
2021/01/28 07:20:40;;;;;;;12.00;5.82;;;4.40;58.90;;;;;;5115553;28;20291;-74
2021/01/28 07:23:25;;;;;;;6.00;5.10;;;;;;;;;;5096793;28;20280;-73
2021/01/28 07:26:06;;;;;;;4.13;3.72;;;;;;;;;;5115970;28;20170;-74
2021/01/28 07:28:32;;;;;;;4.75;3.30;;;4.60;48.90;;;;;;5114600;28;20175;-73
2021/01/28 07:31:03;;;;;;;7.57;3.23;;;4.70;49.60;;;;;;5110163;28;20196;-75
2021/01/28 07:33:29;;;;;;;4.75;4.35;;;4.60;49.90;;;;;;5094344;28;20461;-74
2021/01/28 07:36:21;;;;;;;6.80;4.83;;;4.70;50.20;;;;;;5092758;28;20192;-74
2021/01/28 07:38:54;;;;;;;4.15;3.47;;;4.70;50.40;;;;;;5108983;28;20265;-73
2021/01/28 07:41:32;;;;;;;5.18;4.10;;;4.60;50.50;;;;;;5105454;28;20281;-74
2021/01/28 07:44:29;;;;;;;4.85;4.18;;;4.70;50.70;;;;;;5104457;28;20377;-74
2021/01/28 07:46:55;;;;;;;4.60;4.13;;;4.70;51.20;;;;;;5073193;28;20184;-73
2021/01/28 07:49:22;;;;;;;6.75;3.92;;;4.70;51.60;;;;;;5102701;28;20186;-73
2021/01/28 07:51:50;;;;;;;3.03;2.75;;;4.80;51.60;;;;;;5100953;28;20252;-75
2021/01/28 07:54:22;;;;;;;3.17;2.88;;;4.90;51.80;;;;;;5078595;28;20176;-73
2021/01/28 07:56:59;;;;;;;4.75;3.33;;;5.00;51.70;;;;;;5136889;27;20190;-74
2021/01/28 07:59:37;;;;;;;3.63;3.10;;;5.00;51.20;;;;;;5127424;27;20692;-74
2021/01/28 08:02:34;;;;;;;5.20;3.53;;;5.10;52.10;;;;;;5113368;28;20902;-74
2021/01/28 08:05:08;;;;;;;5.60;4.33;;;5.10;52.00;;;;;;5115676;28;21014;-74
2021/01/28 08:07:45;;;;;;;3.40;2.37;;;5.20;52.00;;;;;;5114953;27;20431;-74
2021/01/28 08:10:29;;;;;;;3.07;2.07;;;5.30;50.80;;;;;;5095751;28;20935;-74
2021/01/28 08:12:58;;;;;;;4.27;2.17;;;5.50;50.50;;;;;;5077984;28;20441;-74
2021/01/28 08:15:44;;;;;;;1.92;1.45;;;5.50;49.90;;;;;;5112559;28;20458;-74
2021/01/28 08:18:18;;;;;;;1.90;1.67;;;5.50;49.80;;;;;;5084319;28;20560;-74
2021/01/28 08:20:44;;;;;;;2.33;1.52;;;5.60;48.90;;;;;;5091522;28;20589;-73
2021/01/28 08:23:27;;;;;;;2.00;1.13;;;5.60;49.40;;;;;;5094778;28;20259;-73
2021/01/28 08:25:57;;;;;;;2.08;1.55;;;5.60;49.40;;;;;;5110432;28;20194;-74
2021/01/28 08:28:25;;;;;;;2.25;1.65;;;5.60;48.70;;;;;;5109886;28;20198;-74
2021/01/28 08:31:00;;;;;;;2.17;1.45;;;5.60;48.70;;;;;;5091891;28;20203;-73
2021/01/28 08:33:26;;;;;;;1.67;1.50;;;5.60;48.70;;;;;;5116965;28;20174;-73
2021/01/28 08:35:56;;;;;;;1.50;1.20;;;5.60;48.70;;;;;;5093262;28;20431;-74
2021/01/28 08:38:33;;;;;;;1.70;1.20;;;5.60;48.70;;;;;;5112332;28;20631;-74
2021/01/28 08:41:20;;;;;;;1.30;0.93;;;5.70;49.20;;;;;;5095805;28;20449;-74
2021/01/28 08:43:57;;;;;;;1.50;1.00;;;5.70;48.80;;;;;;5094989;28;20455;-73
2021/01/28 08:46:22;;;;;;;3.90;1.17;;;5.70;48.70;;;;;;5108442;28;20202;-73
2021/01/28 08:48:48;;;;;;;2.60;1.20;;;5.70;48.90;;;;;;5092847;28;20436;-73
2021/01/28 08:51:24;;;;;;;1.43;0.90;;;5.80;48.90;;;;;;5093506;28;20685;-73
2021/01/28 08:54:02;;;;;;;4.40;1.50;;;5.90;48.90;;;;;;5105298;28;20492;-74
2021/01/28 08:56:38;;;;;;;1.20;0.80;;;5.90;48.90;;;;;;5114488;28;20975;-73
2021/01/28 08:59:11;;;;;;;1.40;1.00;;;6.00;48.40;;;;;;5093492;28;20456;-73
2021/01/28 09:01:43;;;;;;;2.13;1.10;;;6.00;47.90;;;;;;5114122;28;20501;-73
2021/01/28 09:04:17;;;;;;;1.77;1.27;;;6.00;47.30;;;;;;5072661;28;20522;-73
2021/01/28 09:06:47;;;;;;;3.20;1.50;;;5.90;47.10;;;;;;5090929;28;20396;-73
2021/01/28 09:09:26;;;;;;;2.70;1.37;;;5.90;47.10;;;;;;5073161;28;20421;-73
2021/01/28 09:12:12;;;;;;;2.63;1.97;;;5.90;47.30;;;;;;5072299;28;20418;-76
2021/01/28 09:14:40;;;;;;;2.23;1.27;;;5.80;46.90;;;;;;5082185;28;20442;-71
2021/01/28 09:17:23;;;;;;;2.27;1.40;;;5.80;46.40;;;;;;5112357;28;20438;-74
2021/01/28 09:19:55;;;;;;;1.40;0.77;;;5.80;47.00;;;;;;5088909;28;20464;-71
2021/01/28 09:22:38;;;;;;;1.30;1.03;;;5.80;47.20;;;;;;5090963;28;20505;-71
2021/01/28 09:25:19;;;;;;;1.33;0.93;;;5.80;47.50;;;;;;5076283;28;20403;-71
2021/01/28 09:28:10;;;;;;;1.73;1.33;;;5.80;47.40;;;;;;5107208;28;20779;-72
2021/01/28 09:30:39;;;;;;;3.30;1.47;;;5.80;47.40;;;;;;5110003;28;20424;-72
2021/01/28 09:33:29;;;;;;;1.63;1.33;;;5.80;47.70;;;;;;5111938;28;20410;-72
2021/01/28 09:36:14;;;;;;;1.37;0.80;;;5.90;48.20;;;;;;5114332;28;20492;-72
2021/01/28 09:38:40;;;;;;;2.87;1.70;;;6.00;48.30;;;;;;5106205;28;20410;-72
2021/01/28 09:41:19;;;;;;;1.73;1.07;;;6.20;47.70;;;;;;5096562;28;20431;-72
2021/01/28 09:43:46;;;;;;;2.53;1.70;;;6.30;47.30;;;;;;5093790;28;20828;-73
2021/01/28 09:46:20;;;;;;;1.50;1.07;;;6.40;47.10;;;;;;5114593;28;20441;-72
2021/01/28 09:48:48;;;;;;;2.20;0.90;;;6.50;46.30;;;;;;5109718;28;20909;-72
2021/01/28 09:51:27;;;;;;;1.87;1.63;;;6.60;45.60;;;;;;5093683;28;551898;-73
2021/01/28 09:54:20;;;;;;;1.67;1.17;;;6.70;45.00;;;;;;5091669;28;20485;-73
2021/01/28 09:56:45;;;;;;;1.50;1.33;;;6.70;44.50;;;;;;5072417;28;20419;-73
2021/01/28 09:59:13;;;;;;;4.30;2.73;;;6.80;44.60;;;;;;5118071;22;21020;-73
2021/01/28 10:01:38;;;;;;;2.27;1.57;;;6.80;44.70;;;;;;5105204;28;20181;-73
2021/01/28 10:04:05;;;;;;;3.50;1.97;;;6.80;44.60;;;;;;5089781;28;20883;-72
2021/01/28 10:06:32;;;;;;;1.60;1.00;;;6.70;44.50;;;;;;5109159;28;20180;-72
2021/01/28 10:08:59;;;;;;;1.67;1.13;;;6.70;44.60;;;;;;5107556;28;20434;-73
2021/01/28 10:11:24;;;;;;;1.90;1.40;;;6.70;45.30;;;;;;5108632;28;20423;-72
2021/01/28 10:13:50;;;;;;;3.70;1.93;;;6.80;44.90;;;;;;5087733;28;20423;-71
2021/01/28 10:16:16;;;;;;;1.60;1.30;;;6.80;44.60;;;;;;5069859;28;20246;-73
2021/01/28 10:18:41;;;;;;;2.10;1.63;;;6.80;45.10;;;;;;5069993;28;20446;-71
2021/01/28 10:21:07;;;;;;;3.30;2.77;;;6.80;45.60;;;;;;5068706;28;20197;-70
2021/01/28 10:23:33;;;;;;;3.40;2.40;;;6.80;45.60;;;;;;5096671;28;20224;-71
2021/01/28 10:25:58;;;;;;;5.97;3.80;;;6.80;46.20;;;;;;5087629;28;20641;-69
2021/01/28 10:28:24;;;;;;;3.03;2.73;;;6.80;46.60;;;;;;5072087;28;20687;-73
2021/01/28 10:30:49;;;;;;;4.30;3.50;;;6.90;46.70;;;;;;5081676;28;20267;-70
2021/01/28 10:33:15;;;;;;;2.73;2.53;;;6.80;47.00;;;;;;5073050;28;20185;-71
2021/01/28 10:35:42;;;;;;;3.47;2.87;;;6.90;47.50;;;;;;5073695;28;20595;-73
2021/01/28 10:38:08;;;;;;;3.73;3.33;;;6.90;47.60;;;;;;5091517;28;20200;-73
2021/01/28 10:40:34;;;;;;;8.93;4.90;;;6.90;47.60;;;;;;5070644;28;20424;-73
2021/01/28 10:43:04;;;;;;;11.20;5.77;;;7.00;47.70;;;;;;5072359;28;20214;-73
2021/01/28 10:45:40;;;;;;;7.60;5.80;;;6.90;47.80;;;;;;5091103;28;20419;-72
2021/01/28 10:48:07;;;;;;;7.30;6.60;;;6.90;48.30;;;;;;5095053;28;20429;-73
2021/01/28 10:50:34;;;;;;;5.43;5.03;;;6.90;48.40;;;;;;5115830;28;20422;-73
2021/01/28 10:53:00;;;;;;;4.67;3.77;;;7.00;48.30;;;;;;5099104;28;20414;-72
2021/01/28 10:55:28;;;;;;;4.23;3.73;;;7.00;48.50;;;;;;5097036;28;20415;-71
2021/01/28 10:57:54;;;;;;;3.23;2.93;;;7.10;48.70;;;;;;5097089;28;20512;-71
2021/01/28 11:00:21;;;;;;;4.77;3.70;;;7.20;48.40;;;;;;5115908;28;20991;-71
2021/01/28 11:02:46;;;;;;;3.03;2.77;;;7.20;48.80;;;;;;5097236;28;20200;-70
2021/01/28 11:05:37;;;;;;;4.43;3.47;;;7.20;49.00;;;;;;5114454;28;20402;-72
2021/01/28 11:08:05;;;;;;;4.60;3.00;;;7.30;49.20;;;;;;5112828;28;20220;-72
2021/01/28 11:10:31;;;;;;;3.30;3.00;;;7.50;48.70;;;;;;5096305;28;20472;-72
2021/01/28 11:12:58;;;;;;;4.90;3.57;;;7.50;49.40;;;;;;5114174;28;20418;-72
2021/01/28 11:15:28;;;;;;;4.07;3.57;;;7.70;49.00;;;;;;5115465;28;20418;-71
2021/01/28 11:17:54;;;;;;;5.70;3.80;;;;;;;;;;5115310;28;20972;-72
2021/01/28 11:20:20;;;;;;;4.17;3.63;;;8.10;47.80;;;;;;5088079;28;20437;-71
2021/01/28 11:22:46;;;;;;;3.50;3.20;;;8.40;48.00;;;;;;5057594;28;20450;-72
2021/01/28 11:25:18;;;;;;;4.93;4.53;;;8.70;47.60;;;;;;5075852;28;20420;-72
2021/01/28 11:27:45;;;;;;;3.37;3.07;;;9.00;46.20;;;;;;5075718;28;20180;-71
2021/01/28 11:30:12;;;;;;;6.70;3.77;;;9.30;45.40;;;;;;5073515;28;20769;-71
2021/01/28 11:32:38;;;;;;;2.90;2.70;;;9.50;43.50;;;;;;5111485;28;20869;-72
2021/01/28 11:35:05;;;;;;;3.13;2.83;;;9.60;42.40;;;;;;5114653;28;20449;-71
2021/01/28 11:37:30;;;;;;;3.50;3.20;;;9.60;42.00;;;;;;5113667;28;20444;-71
2021/01/28 11:39:56;;;;;;;6.17;4.63;;;9.60;41.90;;;;;;5113058;28;20520;-71
2021/01/28 11:42:21;;;;;;;2.20;1.60;;;9.50;41.80;;;;;;5110526;28;20214;-71
2021/01/28 11:44:47;;;;;;;2.50;1.50;;;9.50;42.30;;;;;;5097149;28;20263;-70
2021/01/28 11:47:12;;;;;;;2.50;2.30;;;9.40;43.40;;;;;;5094403;28;20259;-71
2021/01/28 11:49:38;;;;;;;3.17;2.10;;;9.40;44.20;;;;;;5092266;28;20731;-72
2021/01/28 11:52:04;;;;;;;1.90;1.60;;;9.40;45.90;;;;;;5093058;28;20530;-71
2021/01/28 11:54:29;;;;;;;1.53;1.40;;;9.70;46.80;;;;;;5094217;28;20553;-72
2021/01/28 11:56:55;;;;;;;5.63;1.43;;;10.10;44.70;;;;;;5113432;28;20253;-72
2021/01/28 11:59:21;;;;;;;1.60;0.77;;;10.40;42.60;;;;;;5114266;28;20226;-72
2021/01/28 12:01:47;;;;;;;5.17;1.00;;;10.40;41.70;;;;;;5114253;28;20171;-73
2021/01/28 12:04:14;;;;;;;1.53;0.73;;;10.40;41.60;;;;;;5114938;28;20245;-73
2021/01/28 12:06:40;;;;;;;1.97;1.17;;;10.40;41.60;;;;;;5109144;28;20423;-73
2021/01/28 12:09:06;;;;;;;2.60;1.27;;;10.40;41.60;;;;;;5092240;28;20430;-74
2021/01/28 12:11:31;;;;;;;1.07;0.50;;;10.40;41.60;;;;;;5093746;28;20417;-73
2021/01/28 12:13:57;;;;;;;1.40;1.00;;;10.40;41.60;;;;;;5093165;28;20697;-72
2021/01/28 12:16:23;;;;;;;1.30;0.70;;;10.50;41.70;;;;;;5109842;28;20212;-72
2021/01/28 12:18:48;;;;;;;1.67;1.20;;;10.60;41.80;;;;;;5112717;28;20203;-73
2021/01/28 12:21:14;;;;;;;1.73;1.13;;;10.70;41.90;;;;;;5095517;28;20215;-72
2021/01/28 12:23:39;;;;;;;6.63;1.27;;;10.90;41.20;;;;;;5115958;28;20199;-73
2021/01/28 12:26:05;;;;;;;1.10;0.50;;;11.00;40.50;;;;;;5082322;28;20439;-73
2021/01/28 12:28:30;;;;;;;2.03;1.20;;;11.10;39.70;;;;;;5095135;28;20197;-72
2021/01/28 12:30:56;;;;;;;1.70;0.70;;;11.10;39.00;;;;;;5074070;28;20266;-72
2021/01/28 12:33:22;;;;;;;2.50;0.80;;;11.00;39.20;;;;;;5093930;28;20203;-74
2021/01/28 12:35:47;;;;;;;1.30;0.70;;;11.00;40.10;;;;;;5093844;28;20181;-73
2021/01/28 12:38:13;;;;;;;1.20;0.70;;;11.00;40.20;;;;;;5111805;28;20207;-72
2021/01/28 12:40:39;;;;;;;1.40;0.73;;;11.20;39.80;;;;;;5112613;28;20698;-72
2021/01/28 12:43:06;;;;;;;1.30;0.90;;;11.30;39.00;;;;;;5112844;28;20208;-73
2021/01/28 12:45:32;;;;;;;2.43;0.67;;;11.30;39.00;;;;;;5096071;28;20342;-72
2021/01/28 12:47:59;;;;;;;1.13;0.70;;;11.40;38.30;;;;;;5115175;28;20498;-72
2021/01/28 12:50:24;;;;;;;1.70;0.70;;;11.50;37.50;;;;;;5080545;28;20419;-71
2021/01/28 12:52:50;;;;;;;1.03;0.60;;;11.60;37.60;;;;;;5092254;28;20444;-72
2021/01/28 12:55:15;;;;;;;1.93;1.00;;;11.50;37.50;;;;;;5091917;28;20185;-71
2021/01/28 12:57:42;;;;;;;1.50;0.83;;;11.40;37.70;;;;;;5091913;28;20237;-72
2021/01/28 13:00:13;;;;;;;1.70;0.73;;;11.20;38.40;;;;;;5095306;28;20662;-72
2021/01/28 13:02:38;;;;;;;1.80;0.87;;;11.00;39.60;;;;;;5093634;28;20546;-73
2021/01/28 13:05:04;;;;;;;1.10;0.50;;;11.00;40.50;;;;;;5096755;28;20970;-72
2021/01/28 13:07:30;;;;;;;1.07;0.50;;;10.90;40.30;;;;;;5092941;28;20204;-72
2021/01/28 13:09:56;;;;;;;1.43;0.90;;;10.80;41.50;;;;;;5074937;28;20465;-71
2021/01/28 13:12:22;;;;;;;1.50;1.20;;;10.70;41.90;;;;;;5106239;28;20434;-72
2021/01/28 13:14:47;;;;;;;2.03;0.87;;;10.80;42.00;;;;;;5095536;28;20169;-72
2021/01/28 13:17:13;;;;;;;1.20;0.70;;;10.80;41.60;;;;;;5112267;28;20906;-72